sensor_id;sensor_type;location;lat;lon;timestamp;P1;durP1;ratioP1;P2;durP2;ratioP2
70796;SDS011;63842;52.144;5.360;2023-03-23T00:01:20;10.73;;;4.10;;
70796;SDS011;63842;52.144;5.360;2023-03-23T00:03:50;12.05;;;4.40;;
70796;SDS011;63842;52.144;5.360;2023-03-23T00:06:20;12.15;;;4.40;;
70796;SDS011;63842;52.144;5.360;2023-03-23T00:08:47;10.70;;;4.50;;
70796;SDS011;63842;52.144;5.360;2023-03-23T00:11:19;10.68;;;4.00;;
70796;SDS011;63842;52.144;5.360;2023-03-23T00:13:48;8.73;;;3.75;;
70796;SDS011;63842;52.144;5.360;2023-03-23T00:16:19;9.40;;;3.88;;
70796;SDS011;63842;52.144;5.360;2023-03-23T00:18:46;9.52;;;3.88;;
70796;SDS011;63842;52.144;5.360;2023-03-23T00:21:12;10.85;;;4.22;;
70796;SDS011;63842;52.144;5.360;2023-03-23T00:23:39;10.15;;;3.97;;
70796;SDS011;63842;52.144;5.360;2023-03-23T00:26:08;9.93;;;3.80;;
70796;SDS011;63842;52.144;5.360;2023-03-23T00:28:34;9.73;;;4.00;;
70796;SDS011;63842;52.144;5.360;2023-03-23T00:31:02;9.02;;;3.55;;
70796;SDS011;63842;52.144;5.360;2023-03-23T00:33:30;9.93;;;3.67;;
70796;SDS011;63842;52.144;5.360;2023-03-23T00:36:03;9.25;;;3.80;;
70796;SDS011;63842;52.144;5.360;2023-03-23T00:38:30;9.07;;;3.50;;
70796;SDS011;63842;52.144;5.360;2023-03-23T00:40:57;11.00;;;3.83;;
70796;SDS011;63842;52.144;5.360;2023-03-23T00:43:29;11.50;;;3.83;;
70796;SDS011;63842;52.144;5.360;2023-03-23T00:45:56;9.18;;;3.35;;
70796;SDS011;63842;52.144;5.360;2023-03-23T00:48:26;9.27;;;3.17;;
70796;SDS011;63842;52.144;5.360;2023-03-23T00:50:53;8.82;;;3.70;;
70796;SDS011;63842;52.144;5.360;2023-03-23T00:53:21;8.52;;;3.67;;
70796;SDS011;63842;52.144;5.360;2023-03-23T00:55:48;8.75;;;3.33;;
70796;SDS011;63842;52.144;5.360;2023-03-23T00:58:15;10.68;;;3.55;;
70796;SDS011;63842;52.144;5.360;2023-03-23T01:00:41;7.60;;;3.03;;
70796;SDS011;63842;52.144;5.360;2023-03-23T01:03:08;8.88;;;3.35;;
70796;SDS011;63842;52.144;5.360;2023-03-23T01:05:43;11.43;;;3.70;;
70796;SDS011;63842;52.144;5.360;2023-03-23T01:08:13;9.00;;;3.35;;
70796;SDS011;63842;52.144;5.360;2023-03-23T01:10:39;8.90;;;3.00;;
70796;SDS011;63842;52.144;5.360;2023-03-23T01:13:06;7.95;;;3.30;;
70796;SDS011;63842;52.144;5.360;2023-03-23T01:15:32;9.70;;;3.17;;
70796;SDS011;63842;52.144;5.360;2023-03-23T01:17:59;9.35;;;3.38;;
70796;SDS011;63842;52.144;5.360;2023-03-23T01:20:25;7.65;;;3.08;;
70796;SDS011;63842;52.144;5.360;2023-03-23T01:22:54;9.70;;;3.53;;
70796;SDS011;63842;52.144;5.360;2023-03-23T01:25:26;8.18;;;2.95;;
70796;SDS011;63842;52.144;5.360;2023-03-23T01:27:53;9.50;;;2.88;;
70796;SDS011;63842;52.144;5.360;2023-03-23T01:30:20;8.00;;;3.05;;
70796;SDS011;63842;52.144;5.360;2023-03-23T01:32:46;7.85;;;3.10;;
70796;SDS011;63842;52.144;5.360;2023-03-23T01:35:12;8.90;;;2.95;;
70796;SDS011;63842;52.144;5.360;2023-03-23T01:37:39;8.27;;;3.38;;
70796;SDS011;63842;52.144;5.360;2023-03-23T01:40:06;9.20;;;2.90;;
70796;SDS011;63842;52.144;5.360;2023-03-23T01:42:34;9.60;;;3.22;;
70796;SDS011;63842;52.144;5.360;2023-03-23T01:47:46;10.48;;;3.10;;
70796;SDS011;63842;52.144;5.360;2023-03-23T01:50:17;8.80;;;2.95;;
70796;SDS011;63842;52.144;5.360;2023-03-23T01:52:43;10.27;;;2.97;;
70796;SDS011;63842;52.144;5.360;2023-03-23T01:55:10;8.15;;;2.83;;
70796;SDS011;63842;52.144;5.360;2023-03-23T01:57:36;7.35;;;3.08;;
70796;SDS011;63842;52.144;5.360;2023-03-23T02:00:07;8.18;;;3.08;;
70796;SDS011;63842;52.144;5.360;2023-03-23T02:02:39;7.50;;;2.80;;
70796;SDS011;63842;52.144;5.360;2023-03-23T02:05:08;6.85;;;2.72;;
70796;SDS011;63842;52.144;5.360;2023-03-23T02:07:36;8.05;;;3.05;;
70796;SDS011;63842;52.144;5.360;2023-03-23T02:10:04;7.60;;;2.70;;
70796;SDS011;63842;52.144;5.360;2023-03-23T02:12:34;7.47;;;2.78;;
70796;SDS011;63842;52.144;5.360;2023-03-23T02:15:01;8.52;;;2.75;;
70796;SDS011;63842;52.144;5.360;2023-03-23T02:17:32;7.95;;;3.58;;
70796;SDS011;63842;52.144;5.360;2023-03-23T02:30:31;7.90;;;3.08;;
70796;SDS011;63842;52.144;5.360;2023-03-23T02:35:45;8.50;;;2.95;;
70796;SDS011;63842;52.144;5.360;2023-03-23T02:38:16;9.68;;;3.25;;
70796;SDS011;63842;52.144;5.360;2023-03-23T02:40:47;10.27;;;3.42;;
70796;SDS011;63842;52.144;5.360;2023-03-23T02:43:17;8.32;;;2.90;;
70796;SDS011;63842;52.144;5.360;2023-03-23T02:45:46;9.35;;;3.15;;
70796;SDS011;63842;52.144;5.360;2023-03-23T02:48:15;7.93;;;3.10;;
70796;SDS011;63842;52.144;5.360;2023-03-23T02:50:46;8.32;;;3.20;;
70796;SDS011;63842;52.144;5.360;2023-03-23T02:53:13;9.07;;;3.38;;
70796;SDS011;63842;52.144;5.360;2023-03-23T02:55:43;9.75;;;3.20;;
70796;SDS011;63842;52.144;5.360;2023-03-23T02:58:15;7.88;;;3.15;;
70796;SDS011;63842;52.144;5.360;2023-03-23T03:00:42;9.43;;;3.50;;
70796;SDS011;63842;52.144;5.360;2023-03-23T03:03:13;10.80;;;3.45;;
70796;SDS011;63842;52.144;5.360;2023-03-23T03:19:03;9.05;;;2.75;;
70796;SDS011;63842;52.144;5.360;2023-03-23T03:21:33;8.50;;;2.88;;
70796;SDS011;63842;52.144;5.360;2023-03-23T03:24:03;7.78;;;3.08;;
70796;SDS011;63842;52.144;5.360;2023-03-23T03:26:34;7.93;;;2.90;;
70796;SDS011;63842;52.144;5.360;2023-03-23T03:29:22;8.25;;;2.92;;
70796;SDS011;63842;52.144;5.360;2023-03-23T03:31:52;7.85;;;2.60;;
70796;SDS011;63842;52.144;5.360;2023-03-23T03:34:21;8.30;;;2.70;;
70796;SDS011;63842;52.144;5.360;2023-03-23T03:36:51;9.60;;;2.75;;
70796;SDS011;63842;52.144;5.360;2023-03-23T03:39:18;6.85;;;2.40;;
70796;SDS011;63842;52.144;5.360;2023-03-23T03:41:46;8.30;;;2.72;;
70796;SDS011;63842;52.144;5.360;2023-03-23T03:44:13;8.15;;;2.45;;
70796;SDS011;63842;52.144;5.360;2023-03-23T03:46:40;7.40;;;2.45;;
70796;SDS011;63842;52.144;5.360;2023-03-23T03:49:07;7.60;;;2.13;;
70796;SDS011;63842;52.144;5.360;2023-03-23T03:51:36;6.30;;;2.03;;
70796;SDS011;63842;52.144;5.360;2023-03-23T03:54:04;7.32;;;2.20;;
70796;SDS011;63842;52.144;5.360;2023-03-23T03:56:30;7.30;;;2.38;;
70796;SDS011;63842;52.144;5.360;2023-03-23T03:59:26;7.53;;;2.38;;
70796;SDS011;63842;52.144;5.360;2023-03-23T04:02:19;6.78;;;2.03;;
70796;SDS011;63842;52.144;5.360;2023-03-23T04:04:48;7.45;;;2.20;;
70796;SDS011;63842;52.144;5.360;2023-03-23T04:07:17;6.97;;;2.20;;
70796;SDS011;63842;52.144;5.360;2023-03-23T04:09:44;6.90;;;1.98;;
70796;SDS011;63842;52.144;5.360;2023-03-23T04:12:13;7.13;;;2.17;;
70796;SDS011;63842;52.144;5.360;2023-03-23T04:14:55;7.13;;;2.13;;
70796;SDS011;63842;52.144;5.360;2023-03-23T04:17:25;8.13;;;2.15;;
70796;SDS011;63842;52.144;5.360;2023-03-23T04:19:52;5.30;;;2.00;;
70796;SDS011;63842;52.144;5.360;2023-03-23T04:22:23;6.72;;;2.00;;
70796;SDS011;63842;52.144;5.360;2023-03-23T04:24:58;9.68;;;2.30;;
70796;SDS011;63842;52.144;5.360;2023-03-23T04:29:56;5.28;;;1.90;;
70796;SDS011;63842;52.144;5.360;2023-03-23T04:32:42;4.82;;;1.70;;
70796;SDS011;63842;52.144;5.360;2023-03-23T04:35:12;6.50;;;1.80;;
70796;SDS011;63842;52.144;5.360;2023-03-23T04:37:57;10.25;;;2.10;;
70796;SDS011;63842;52.144;5.360;2023-03-23T04:40:24;6.30;;;1.83;;
70796;SDS011;63842;52.144;5.360;2023-03-23T04:43:02;9.50;;;2.00;;
70796;SDS011;63842;52.144;5.360;2023-03-23T04:45:54;5.70;;;1.70;;
70796;SDS011;63842;52.144;5.360;2023-03-23T04:48:23;11.23;;;2.35;;
70796;SDS011;63842;52.144;5.360;2023-03-23T04:51:06;6.53;;;1.67;;
70796;SDS011;63842;52.144;5.360;2023-03-23T04:53:32;7.28;;;1.75;;
70796;SDS011;63842;52.144;5.360;2023-03-23T04:56:00;7.25;;;1.58;;
70796;SDS011;63842;52.144;5.360;2023-03-23T04:58:31;9.05;;;1.63;;
70796;SDS011;63842;52.144;5.360;2023-03-23T05:01:28;7.50;;;1.88;;
70796;SDS011;63842;52.144;5.360;2023-03-23T05:04:12;9.95;;;1.80;;
70796;SDS011;63842;52.144;5.360;2023-03-23T05:06:44;6.25;;;1.30;;
70796;SDS011;63842;52.144;5.360;2023-03-23T05:09:17;7.28;;;1.48;;
70796;SDS011;63842;52.144;5.360;2023-03-23T05:11:46;11.20;;;2.05;;
70796;SDS011;63842;52.144;5.360;2023-03-23T05:14:12;8.93;;;1.48;;
70796;SDS011;63842;52.144;5.360;2023-03-23T05:16:41;8.50;;;1.50;;
70796;SDS011;63842;52.144;5.360;2023-03-23T05:19:07;6.90;;;1.60;;
70796;SDS011;63842;52.144;5.360;2023-03-23T05:21:35;8.57;;;1.70;;
70796;SDS011;63842;52.144;5.360;2023-03-23T05:24:02;11.00;;;2.40;;
70796;SDS011;63842;52.144;5.360;2023-03-23T05:26:29;11.23;;;1.80;;
70796;SDS011;63842;52.144;5.360;2023-03-23T05:29:03;8.23;;;1.83;;
70796;SDS011;63842;52.144;5.360;2023-03-23T05:31:40;10.00;;;2.20;;
70796;SDS011;63842;52.144;5.360;2023-03-23T05:34:06;10.10;;;1.90;;
70796;SDS011;63842;52.144;5.360;2023-03-23T05:36:43;9.90;;;2.03;;
70796;SDS011;63842;52.144;5.360;2023-03-23T05:39:25;8.48;;;1.60;;
70796;SDS011;63842;52.144;5.360;2023-03-23T05:42:17;10.35;;;2.10;;
70796;SDS011;63842;52.144;5.360;2023-03-23T05:44:50;7.65;;;1.60;;
70796;SDS011;63842;52.144;5.360;2023-03-23T05:47:16;10.65;;;1.88;;
70796;SDS011;63842;52.144;5.360;2023-03-23T05:49:50;7.88;;;1.63;;
70796;SDS011;63842;52.144;5.360;2023-03-23T05:52:18;10.32;;;1.80;;
70796;SDS011;63842;52.144;5.360;2023-03-23T05:54:46;10.35;;;1.98;;
70796;SDS011;63842;52.144;5.360;2023-03-23T05:57:12;10.15;;;1.92;;
70796;SDS011;63842;52.144;5.360;2023-03-23T05:59:45;9.02;;;1.80;;
70796;SDS011;63842;52.144;5.360;2023-03-23T06:02:18;6.60;;;1.90;;
70796;SDS011;63842;52.144;5.360;2023-03-23T06:04:44;10.32;;;2.30;;
70796;SDS011;63842;52.144;5.360;2023-03-23T06:07:20;9.30;;;2.08;;
70796;SDS011;63842;52.144;5.360;2023-03-23T06:09:54;8.32;;;2.03;;
70796;SDS011;63842;52.144;5.360;2023-03-23T06:12:23;8.40;;;1.95;;
70796;SDS011;63842;52.144;5.360;2023-03-23T06:15:09;9.50;;;1.77;;
70796;SDS011;63842;52.144;5.360;2023-03-23T06:17:54;10.10;;;1.90;;
70796;SDS011;63842;52.144;5.360;2023-03-23T06:20:27;9.18;;;2.30;;
70796;SDS011;63842;52.144;5.360;2023-03-23T06:22:53;7.90;;;1.77;;
70796;SDS011;63842;52.144;5.360;2023-03-23T06:25:28;8.65;;;2.30;;
70796;SDS011;63842;52.144;5.360;2023-03-23T06:27:55;8.00;;;2.15;;
70796;SDS011;63842;52.144;5.360;2023-03-23T06:30:23;7.57;;;2.00;;
70796;SDS011;63842;52.144;5.360;2023-03-23T06:32:49;8.52;;;2.13;;
70796;SDS011;63842;52.144;5.360;2023-03-23T06:35:25;6.00;;;1.95;;
70796;SDS011;63842;52.144;5.360;2023-03-23T06:37:52;6.28;;;2.00;;
70796;SDS011;63842;52.144;5.360;2023-03-23T06:40:31;7.68;;;1.92;;
70796;SDS011;63842;52.144;5.360;2023-03-23T06:42:57;7.30;;;2.00;;
70796;SDS011;63842;52.144;5.360;2023-03-23T06:45:45;13.25;;;2.92;;
70796;SDS011;63842;52.144;5.360;2023-03-23T06:48:30;8.45;;;2.47;;
70796;SDS011;63842;52.144;5.360;2023-03-23T06:50:58;11.35;;;2.50;;
70796;SDS011;63842;52.144;5.360;2023-03-23T06:53:25;8.05;;;2.38;;
70796;SDS011;63842;52.144;5.360;2023-03-23T06:55:54;9.73;;;2.35;;
70796;SDS011;63842;52.144;5.360;2023-03-23T06:58:28;11.07;;;2.40;;
70796;SDS011;63842;52.144;5.360;2023-03-23T07:00:55;11.07;;;2.67;;
70796;SDS011;63842;52.144;5.360;2023-03-23T07:03:27;9.63;;;2.38;;
70796;SDS011;63842;52.144;5.360;2023-03-23T07:05:54;9.13;;;1.80;;
70796;SDS011;63842;52.144;5.360;2023-03-23T07:08:25;13.73;;;2.13;;
70796;SDS011;63842;52.144;5.360;2023-03-23T07:10:52;10.50;;;4.32;;
70796;SDS011;63842;52.144;5.360;2023-03-23T07:13:22;10.38;;;3.20;;
70796;SDS011;63842;52.144;5.360;2023-03-23T07:15:53;10.25;;;2.70;;
70796;SDS011;63842;52.144;5.360;2023-03-23T07:18:20;9.90;;;2.90;;
70796;SDS011;63842;52.144;5.360;2023-03-23T07:20:48;9.90;;;2.20;;
70796;SDS011;63842;52.144;5.360;2023-03-23T07:23:16;11.48;;;2.60;;
70796;SDS011;63842;52.144;5.360;2023-03-23T07:25:48;10.40;;;2.28;;
70796;SDS011;63842;52.144;5.360;2023-03-23T07:28:22;8.88;;;2.35;;
70796;SDS011;63842;52.144;5.360;2023-03-23T07:30:51;6.95;;;2.30;;
70796;SDS011;63842;52.144;5.360;2023-03-23T07:33:17;7.10;;;2.17;;
70796;SDS011;63842;52.144;5.360;2023-03-23T07:35:44;9.77;;;3.03;;
70796;SDS011;63842;52.144;5.360;2023-03-23T07:38:14;12.70;;;2.42;;
70796;SDS011;63842;52.144;5.360;2023-03-23T07:40:45;9.48;;;2.60;;
70796;SDS011;63842;52.144;5.360;2023-03-23T07:43:15;9.90;;;2.15;;
70796;SDS011;63842;52.144;5.360;2023-03-23T07:46:11;13.05;;;2.00;;
70796;SDS011;63842;52.144;5.360;2023-03-23T07:52:30;11.82;;;2.13;;
70796;SDS011;63842;52.144;5.360;2023-03-23T07:54:57;5.78;;;1.70;;
70796;SDS011;63842;52.144;5.360;2023-03-23T07:57:32;8.52;;;1.92;;
70796;SDS011;63842;52.144;5.360;2023-03-23T07:59:59;7.53;;;2.05;;
70796;SDS011;63842;52.144;5.360;2023-03-23T08:02:28;9.65;;;2.17;;
70796;SDS011;63842;52.144;5.360;2023-03-23T08:05:15;9.20;;;2.10;;
70796;SDS011;63842;52.144;5.360;2023-03-23T08:08:01;14.57;;;2.38;;
70796;SDS011;63842;52.144;5.360;2023-03-23T08:10:50;11.32;;;2.30;;
70796;SDS011;63842;52.144;5.360;2023-03-23T08:13:42;10.43;;;2.47;;
70796;SDS011;63842;52.144;5.360;2023-03-23T08:16:18;7.07;;;1.98;;
70796;SDS011;63842;52.144;5.360;2023-03-23T08:18:53;8.55;;;2.10;;
70796;SDS011;63842;52.144;5.360;2023-03-23T08:21:41;6.78;;;2.15;;
70796;SDS011;63842;52.144;5.360;2023-03-23T08:24:10;6.97;;;2.15;;
70796;SDS011;63842;52.144;5.360;2023-03-23T08:26:46;8.48;;;2.20;;
70796;SDS011;63842;52.144;5.360;2023-03-23T08:29:31;11.32;;;2.15;;
70796;SDS011;63842;52.144;5.360;2023-03-23T08:32:14;8.80;;;2.38;;
70796;SDS011;63842;52.144;5.360;2023-03-23T08:34:41;11.15;;;2.42;;
70796;SDS011;63842;52.144;5.360;2023-03-23T08:37:08;7.55;;;2.30;;
70796;SDS011;63842;52.144;5.360;2023-03-23T08:39:51;8.60;;;2.30;;
70796;SDS011;63842;52.144;5.360;2023-03-23T08:42:45;9.93;;;2.35;;
70796;SDS011;63842;52.144;5.360;2023-03-23T08:45:30;10.05;;;2.28;;
70796;SDS011;63842;52.144;5.360;2023-03-23T08:48:31;8.32;;;2.20;;
70796;SDS011;63842;52.144;5.360;2023-03-23T08:51:26;12.00;;;2.30;;
70796;SDS011;63842;52.144;5.360;2023-03-23T08:54:11;10.30;;;2.40;;
70796;SDS011;63842;52.144;5.360;2023-03-23T08:57:00;9.55;;;2.33;;
70796;SDS011;63842;52.144;5.360;2023-03-23T08:59:46;5.97;;;2.35;;
70796;SDS011;63842;52.144;5.360;2023-03-23T09:02:35;7.97;;;2.13;;
70796;SDS011;63842;52.144;5.360;2023-03-23T09:05:13;8.18;;;2.10;;
70796;SDS011;63842;52.144;5.360;2023-03-23T09:08:00;11.18;;;2.25;;
70796;SDS011;63842;52.144;5.360;2023-03-23T09:10:29;7.35;;;1.95;;
70796;SDS011;63842;52.144;5.360;2023-03-23T09:12:57;9.95;;;2.20;;
70796;SDS011;63842;52.144;5.360;2023-03-23T09:15:24;12.52;;;2.25;;
70796;SDS011;63842;52.144;5.360;2023-03-23T09:17:50;9.68;;;2.78;;
70796;SDS011;63842;52.144;5.360;2023-03-23T09:20:18;9.45;;;2.15;;
70796;SDS011;63842;52.144;5.360;2023-03-23T09:22:46;9.63;;;2.33;;
70796;SDS011;63842;52.144;5.360;2023-03-23T09:25:14;9.93;;;2.42;;
70796;SDS011;63842;52.144;5.360;2023-03-23T09:27:44;10.85;;;2.15;;
70796;SDS011;63842;52.144;5.360;2023-03-23T09:30:12;8.60;;;2.35;;
70796;SDS011;63842;52.144;5.360;2023-03-23T09:32:44;9.75;;;2.30;;
70796;SDS011;63842;52.144;5.360;2023-03-23T09:35:10;9.35;;;2.38;;
70796;SDS011;63842;52.144;5.360;2023-03-23T09:37:38;15.02;;;2.33;;
70796;SDS011;63842;52.144;5.360;2023-03-23T09:40:06;9.73;;;2.20;;
70796;SDS011;63842;52.144;5.360;2023-03-23T09:47:56;12.27;;;2.20;;
70796;SDS011;63842;52.144;5.360;2023-03-23T09:50:26;10.70;;;2.38;;
70796;SDS011;63842;52.144;5.360;2023-03-23T09:52:58;15.07;;;3.25;;
70796;SDS011;63842;52.144;5.360;2023-03-23T09:55:26;12.15;;;2.15;;
70796;SDS011;63842;52.144;5.360;2023-03-23T10:00:29;11.13;;;2.17;;
70796;SDS011;63842;52.144;5.360;2023-03-23T10:03:00;8.68;;;2.20;;
70796;SDS011;63842;52.144;5.360;2023-03-23T10:08:01;9.68;;;2.35;;
70796;SDS011;63842;52.144;5.360;2023-03-23T10:10:31;10.30;;;2.72;;
70796;SDS011;63842;52.144;5.360;2023-03-23T10:15:50;9.32;;;2.08;;
70796;SDS011;63842;52.144;5.360;2023-03-23T10:18:18;11.07;;;2.05;;
70796;SDS011;63842;52.144;5.360;2023-03-23T10:23:13;11.65;;;2.25;;
70796;SDS011;63842;52.144;5.360;2023-03-23T10:25:42;10.25;;;2.00;;
70796;SDS011;63842;52.144;5.360;2023-03-23T10:28:13;13.35;;;1.98;;
70796;SDS011;63842;52.144;5.360;2023-03-23T10:30:41;12.48;;;1.70;;
70796;SDS011;63842;52.144;5.360;2023-03-23T10:33:18;11.27;;;2.10;;
70796;SDS011;63842;52.144;5.360;2023-03-23T10:35:55;11.32;;;2.15;;
70796;SDS011;63842;52.144;5.360;2023-03-23T10:38:36;12.05;;;2.20;;
70796;SDS011;63842;52.144;5.360;2023-03-23T10:41:09;12.50;;;2.22;;
70796;SDS011;63842;52.144;5.360;2023-03-23T10:43:38;10.15;;;1.98;;
70796;SDS011;63842;52.144;5.360;2023-03-23T10:46:08;10.88;;;2.13;;
70796;SDS011;63842;52.144;5.360;2023-03-23T10:48:37;9.25;;;1.73;;
70796;SDS011;63842;52.144;5.360;2023-03-23T10:51:05;8.60;;;1.75;;
70796;SDS011;63842;52.144;5.360;2023-03-23T10:53:34;9.77;;;2.22;;
70796;SDS011;63842;52.144;5.360;2023-03-23T10:56:02;8.90;;;1.88;;
70796;SDS011;63842;52.144;5.360;2023-03-23T10:58:30;6.20;;;1.75;;
70796;SDS011;63842;52.144;5.360;2023-03-23T11:00:59;9.65;;;1.70;;
70796;SDS011;63842;52.144;5.360;2023-03-23T11:03:42;9.85;;;1.98;;
70796;SDS011;63842;52.144;5.360;2023-03-23T11:06:18;8.85;;;2.05;;
70796;SDS011;63842;52.144;5.360;2023-03-23T11:11:16;13.82;;;2.00;;
70796;SDS011;63842;52.144;5.360;2023-03-23T11:13:43;8.77;;;1.95;;
70796;SDS011;63842;52.144;5.360;2023-03-23T11:16:21;9.70;;;1.88;;
70796;SDS011;63842;52.144;5.360;2023-03-23T11:18:47;9.80;;;1.90;;
70796;SDS011;63842;52.144;5.360;2023-03-23T11:21:14;10.80;;;1.90;;
70796;SDS011;63842;52.144;5.360;2023-03-23T11:23:52;9.43;;;2.22;;
70796;SDS011;63842;52.144;5.360;2023-03-23T11:26:22;8.85;;;1.85;;
70796;SDS011;63842;52.144;5.360;2023-03-23T11:34:13;8.68;;;1.98;;
70796;SDS011;63842;52.144;5.360;2023-03-23T11:36:42;9.50;;;1.90;;
70796;SDS011;63842;52.144;5.360;2023-03-23T11:41:54;12.02;;;2.30;;
70796;SDS011;63842;52.144;5.360;2023-03-23T11:44:22;9.07;;;2.00;;
70796;SDS011;63842;52.144;5.360;2023-03-23T11:52:55;10.52;;;1.92;;
70796;SDS011;63842;52.144;5.360;2023-03-23T11:55:07;11.88;;;2.22;;
70796;SDS011;63842;52.144;5.360;2023-03-23T11:57:35;8.60;;;1.90;;
70796;SDS011;63842;52.144;5.360;2023-03-23T12:00:01;11.27;;;1.95;;
70796;SDS011;63842;52.144;5.360;2023-03-23T12:02:47;7.70;;;1.75;;
70796;SDS011;63842;52.144;5.360;2023-03-23T12:07:57;12.60;;;2.22;;
70796;SDS011;63842;52.144;5.360;2023-03-23T12:10:33;10.45;;;1.75;;
70796;SDS011;63842;52.144;5.360;2023-03-23T12:15:59;11.82;;;2.05;;
70796;SDS011;63842;52.144;5.360;2023-03-23T12:23:47;11.88;;;1.80;;
70796;SDS011;63842;52.144;5.360;2023-03-23T12:26:17;9.18;;;2.17;;
70796;SDS011;63842;52.144;5.360;2023-03-23T12:33:48;8.40;;;1.88;;
70796;SDS011;63842;52.144;5.360;2023-03-23T12:36:36;8.10;;;1.67;;
70796;SDS011;63842;52.144;5.360;2023-03-23T12:39:08;9.82;;;1.90;;
70796;SDS011;63842;52.144;5.360;2023-03-23T12:44:11;10.98;;;2.05;;
70796;SDS011;63842;52.144;5.360;2023-03-23T12:49:27;10.30;;;1.92;;
70796;SDS011;63842;52.144;5.360;2023-03-23T12:56:54;13.23;;;1.70;;
70796;SDS011;63842;52.144;5.360;2023-03-23T12:59:30;10.13;;;1.65;;
70796;SDS011;63842;52.144;5.360;2023-03-23T13:02:04;12.10;;;2.28;;
70796;SDS011;63842;52.144;5.360;2023-03-23T13:04:58;5.40;;;1.20;;
70796;SDS011;63842;52.144;5.360;2023-03-23T13:07:28;5.97;;;1.50;;
70796;SDS011;63842;52.144;5.360;2023-03-23T13:10:04;7.38;;;1.77;;
70796;SDS011;63842;52.144;5.360;2023-03-23T13:12:52;6.80;;;1.52;;
70796;SDS011;63842;52.144;5.360;2023-03-23T13:15:25;7.68;;;1.80;;
70796;SDS011;63842;52.144;5.360;2023-03-23T13:18:12;10.10;;;1.65;;
70796;SDS011;63842;52.144;5.360;2023-03-23T13:20:43;10.55;;;1.90;;
70796;SDS011;63842;52.144;5.360;2023-03-23T13:23:19;7.18;;;1.90;;
70796;SDS011;63842;52.144;5.360;2023-03-23T13:28:14;7.63;;;1.73;;
70796;SDS011;63842;52.144;5.360;2023-03-23T13:30:52;5.88;;;1.50;;
70796;SDS011;63842;52.144;5.360;2023-03-23T13:33:18;7.57;;;1.90;;
70796;SDS011;63842;52.144;5.360;2023-03-23T13:35:46;10.52;;;2.05;;
70796;SDS011;63842;52.144;5.360;2023-03-23T13:38:23;8.52;;;1.80;;
70796;SDS011;63842;52.144;5.360;2023-03-23T13:40:50;5.93;;;1.50;;
70796;SDS011;63842;52.144;5.360;2023-03-23T13:43:30;6.22;;;1.73;;
70796;SDS011;63842;52.144;5.360;2023-03-23T13:46:07;6.78;;;1.60;;
70796;SDS011;63842;52.144;5.360;2023-03-23T13:48:48;11.18;;;1.92;;
70796;SDS011;63842;52.144;5.360;2023-03-23T13:51:26;8.43;;;1.70;;
70796;SDS011;63842;52.144;5.360;2023-03-23T13:54:04;7.20;;;1.65;;
70796;SDS011;63842;52.144;5.360;2023-03-23T13:56:41;8.02;;;1.63;;
70796;SDS011;63842;52.144;5.360;2023-03-23T13:59:13;7.47;;;1.73;;
70796;SDS011;63842;52.144;5.360;2023-03-23T14:01:40;7.93;;;1.70;;
70796;SDS011;63842;52.144;5.360;2023-03-23T14:04:10;9.13;;;1.45;;
70796;SDS011;63842;52.144;5.360;2023-03-23T14:06:39;7.88;;;1.83;;
70796;SDS011;63842;52.144;5.360;2023-03-23T14:09:14;5.57;;;1.45;;
70796;SDS011;63842;52.144;5.360;2023-03-23T14:11:50;6.63;;;1.80;;
70796;SDS011;63842;52.144;5.360;2023-03-23T14:14:25;9.63;;;1.70;;
70796;SDS011;63842;52.144;5.360;2023-03-23T14:16:53;9.63;;;2.20;;
70796;SDS011;63842;52.144;5.360;2023-03-23T14:19:32;10.95;;;2.17;;
70796;SDS011;63842;52.144;5.360;2023-03-23T14:21:59;9.55;;;1.90;;
70796;SDS011;63842;52.144;5.360;2023-03-23T14:24:30;8.35;;;1.98;;
70796;SDS011;63842;52.144;5.360;2023-03-23T14:27:10;8.57;;;1.88;;
70796;SDS011;63842;52.144;5.360;2023-03-23T14:29:37;8.93;;;2.50;;
70796;SDS011;63842;52.144;5.360;2023-03-23T14:32:04;10.48;;;1.85;;
70796;SDS011;63842;52.144;5.360;2023-03-23T14:34:31;9.70;;;2.20;;
70796;SDS011;63842;52.144;5.360;2023-03-23T14:36:58;9.02;;;2.10;;
70796;SDS011;63842;52.144;5.360;2023-03-23T14:39:29;11.27;;;1.98;;
70796;SDS011;63842;52.144;5.360;2023-03-23T14:41:56;9.27;;;2.13;;
70796;SDS011;63842;52.144;5.360;2023-03-23T14:44:29;11.50;;;2.50;;
70796;SDS011;63842;52.144;5.360;2023-03-23T14:46:56;10.65;;;2.60;;
70796;SDS011;63842;52.144;5.360;2023-03-23T14:49:28;11.15;;;3.20;;
70796;SDS011;63842;52.144;5.360;2023-03-23T14:51:55;9.85;;;2.30;;
70796;SDS011;63842;52.144;5.360;2023-03-23T14:54:25;9.90;;;2.22;;
70796;SDS011;63842;52.144;5.360;2023-03-23T14:56:52;11.15;;;2.40;;
70796;SDS011;63842;52.144;5.360;2023-03-23T14:59:18;9.77;;;2.88;;
70796;SDS011;63842;52.144;5.360;2023-03-23T15:01:45;10.50;;;2.40;;
70796;SDS011;63842;52.144;5.360;2023-03-23T15:04:14;10.45;;;2.40;;
70796;SDS011;63842;52.144;5.360;2023-03-23T15:06:42;11.25;;;2.40;;
70796;SDS011;63842;52.144;5.360;2023-03-23T15:09:15;11.50;;;2.13;;
70796;SDS011;63842;52.144;5.360;2023-03-23T15:11:43;10.57;;;2.15;;
70796;SDS011;63842;52.144;5.360;2023-03-23T15:14:20;8.60;;;1.77;;
70796;SDS011;63842;52.144;5.360;2023-03-23T15:16:48;9.98;;;1.83;;
70796;SDS011;63842;52.144;5.360;2023-03-23T15:19:18;9.35;;;1.98;;
70796;SDS011;63842;52.144;5.360;2023-03-23T15:21:47;11.52;;;1.73;;
70796;SDS011;63842;52.144;5.360;2023-03-23T15:26:46;10.80;;;2.00;;
70796;SDS011;63842;52.144;5.360;2023-03-23T15:29:14;7.30;;;1.52;;
70796;SDS011;63842;52.144;5.360;2023-03-23T15:31:53;9.95;;;1.80;;
70796;SDS011;63842;52.144;5.360;2023-03-23T15:34:24;11.32;;;2.10;;
70796;SDS011;63842;52.144;5.360;2023-03-23T15:36:52;9.48;;;1.60;;
70796;SDS011;63842;52.144;5.360;2023-03-23T15:39:21;13.27;;;1.98;;
70796;SDS011;63842;52.144;5.360;2023-03-23T15:41:51;9.75;;;2.22;;
70796;SDS011;63842;52.144;5.360;2023-03-23T15:44:22;8.38;;;1.60;;
70796;SDS011;63842;52.144;5.360;2023-03-23T15:46:50;7.40;;;2.00;;
70796;SDS011;63842;52.144;5.360;2023-03-23T15:49:17;12.63;;;2.13;;
70796;SDS011;63842;52.144;5.360;2023-03-23T15:51:43;7.07;;;1.60;;
70796;SDS011;63842;52.144;5.360;2023-03-23T15:54:14;8.35;;;1.60;;
70796;SDS011;63842;52.144;5.360;2023-03-23T15:56:41;8.13;;;1.50;;
70796;SDS011;63842;52.144;5.360;2023-03-23T15:59:08;9.60;;;1.98;;
70796;SDS011;63842;52.144;5.360;2023-03-23T16:01:36;8.75;;;1.83;;
70796;SDS011;63842;52.144;5.360;2023-03-23T16:04:05;9.52;;;1.65;;
70796;SDS011;63842;52.144;5.360;2023-03-23T16:06:38;9.88;;;1.73;;
70796;SDS011;63842;52.144;5.360;2023-03-23T16:09:06;7.35;;;1.52;;
70796;SDS011;63842;52.144;5.360;2023-03-23T16:11:36;13.40;;;2.65;;
70796;SDS011;63842;52.144;5.360;2023-03-23T16:14:03;15.25;;;2.47;;
70796;SDS011;63842;52.144;5.360;2023-03-23T16:16:33;8.93;;;2.05;;
70796;SDS011;63842;52.144;5.360;2023-03-23T16:19:01;10.65;;;2.30;;
70796;SDS011;63842;52.144;5.360;2023-03-23T16:21:28;11.68;;;2.17;;
70796;SDS011;63842;52.144;5.360;2023-03-23T16:23:55;12.93;;;1.92;;
70796;SDS011;63842;52.144;5.360;2023-03-23T16:26:23;12.85;;;2.10;;
70796;SDS011;63842;52.144;5.360;2023-03-23T16:28:50;11.43;;;2.10;;
70796;SDS011;63842;52.144;5.360;2023-03-23T16:31:28;9.48;;;1.92;;
70796;SDS011;63842;52.144;5.360;2023-03-23T16:33:56;8.68;;;1.90;;
70796;SDS011;63842;52.144;5.360;2023-03-23T16:36:23;8.52;;;2.20;;
70796;SDS011;63842;52.144;5.360;2023-03-23T16:38:50;9.55;;;2.05;;
70796;SDS011;63842;52.144;5.360;2023-03-23T16:41:20;10.35;;;2.22;;
70796;SDS011;63842;52.144;5.360;2023-03-23T16:43:47;13.55;;;2.10;;
70796;SDS011;63842;52.144;5.360;2023-03-23T16:46:14;9.73;;;2.00;;
70796;SDS011;63842;52.144;5.360;2023-03-23T16:48:42;9.57;;;2.17;;